createdAt,value
2022-11-08T00:00:43.397Z,20.30
2022-11-08T00:03:10.721Z,20.26
2022-11-08T00:05:59.896Z,20.20
2022-11-08T00:08:45.326Z,20.23
2022-11-08T00:11:31.723Z,20.19
2022-11-08T00:14:01.549Z,20.21
2022-11-08T00:16:29.682Z,20.19
2022-11-08T00:18:57.038Z,20.20
2022-11-08T00:21:26.987Z,20.21
2022-11-08T00:23:54.423Z,20.20
2022-11-08T00:26:21.439Z,20.15
2022-11-08T00:28:48.545Z,20.16
2022-11-08T00:31:15.585Z,20.14
2022-11-08T00:33:48.154Z,20.13
2022-11-08T00:36:15.480Z,20.07
2022-11-08T00:38:44.010Z,20.09
2022-11-08T00:41:14.724Z,20.01
2022-11-08T00:43:45.322Z,20.00
2022-11-08T00:46:17.536Z,19.97
2022-11-08T00:48:44.618Z,19.99
2022-11-08T00:51:17.686Z,19.99
2022-11-08T00:53:47.094Z,19.99
2022-11-08T00:56:17.247Z,19.95
2022-11-08T00:58:44.437Z,19.94
2022-11-08T01:01:16.381Z,19.95
2022-11-08T01:03:47.916Z,19.94
2022-11-08T01:06:17.550Z,19.89
2022-11-08T01:08:49.956Z,19.90
2022-11-08T01:11:20.875Z,19.92
2022-11-08T01:13:49.055Z,19.94
2022-11-08T01:16:24.085Z,19.84
2022-11-08T01:18:53.848Z,19.82
2022-11-08T01:21:21.938Z,19.85
2022-11-08T01:23:49.734Z,19.81
2022-11-08T01:26:22.437Z,19.82
2022-11-08T01:28:50.294Z,19.81
2022-11-08T01:31:21.818Z,19.81
2022-11-08T01:33:52.111Z,19.76
2022-11-08T01:36:22.365Z,19.72
2022-11-08T01:38:52.322Z,19.72
2022-11-08T01:41:26.665Z,19.73
2022-11-08T01:43:59.523Z,19.60
2022-11-08T01:46:41.232Z,19.60
2022-11-08T01:49:10.903Z,19.65
2022-11-08T01:51:45.819Z,19.63
2022-11-08T01:54:21.985Z,19.58
2022-11-08T01:56:51.971Z,19.58
2022-11-08T01:59:19.860Z,19.55
2022-11-08T02:01:47.856Z,19.61
2022-11-08T02:04:15.833Z,19.58
2022-11-08T02:06:44.661Z,19.49
2022-11-08T02:09:15.605Z,19.55
2022-11-08T02:11:46.512Z,19.56
2022-11-08T02:14:14.699Z,19.55
2022-11-08T02:16:41.833Z,19.53
2022-11-08T02:19:15.485Z,19.52
2022-11-08T02:21:49.984Z,19.44
2022-11-08T02:24:17.826Z,19.48
2022-11-08T02:26:46.497Z,19.47
2022-11-08T02:29:29.747Z,19.47
2022-11-08T02:31:57.813Z,19.45
2022-11-08T02:34:35.137Z,19.43
2022-11-08T02:37:04.183Z,19.43
2022-11-08T02:39:33.127Z,19.42
2022-11-08T02:42:03.346Z,19.44
2022-11-08T02:44:30.448Z,19.43
2022-11-08T02:46:57.579Z,19.45
2022-11-08T02:49:24.837Z,19.44
2022-11-08T02:51:54.708Z,19.41
2022-11-08T02:54:21.767Z,19.38
2022-11-08T02:56:48.927Z,19.41
2022-11-08T03:02:28.486Z,19.37
2022-11-08T03:05:01.380Z,19.36
2022-11-08T03:07:38.428Z,19.36
2022-11-08T03:10:12.783Z,19.32
2022-11-08T03:12:44.599Z,19.28
2022-11-08T03:15:17.228Z,19.23
2022-11-08T03:17:55.334Z,19.23
2022-11-08T03:20:29.607Z,19.16
2022-11-08T03:23:08.402Z,19.15
2022-11-08T03:25:46.633Z,19.13
2022-11-08T03:28:20.303Z,19.17
2022-11-08T03:30:54.869Z,19.18
2022-11-08T03:33:25.097Z,19.21
2022-11-08T03:35:55.416Z,19.22
2022-11-08T03:38:28.395Z,19.20
2022-11-08T03:41:00.793Z,19.17
2022-11-08T03:43:31.155Z,19.18
2022-11-08T03:46:10.908Z,19.16
2022-11-08T03:48:40.736Z,19.14
2022-11-08T03:51:13.497Z,19.10
2022-11-08T03:53:43.967Z,19.04
2022-11-08T03:56:14.383Z,19.03
2022-11-08T03:58:42.764Z,19.05
2022-11-08T04:01:10.174Z,19.00
2022-11-08T04:03:40.862Z,18.99
2022-11-08T04:06:08.652Z,19.00
2022-11-08T04:08:35.843Z,18.99
2022-11-08T04:11:22.851Z,19.02
2022-11-08T04:14:13.396Z,19.02
2022-11-08T04:16:40.811Z,19.02
2022-11-08T04:19:26.554Z,18.97
2022-11-08T04:21:55.479Z,18.98
2022-11-08T04:24:24.088Z,18.97
2022-11-08T04:26:51.723Z,18.97
2022-11-08T04:29:18.877Z,18.95
2022-11-08T04:31:46.034Z,18.95
2022-11-08T04:34:13.386Z,18.95
2022-11-08T04:36:40.632Z,18.97
2022-11-08T04:39:10.732Z,18.98
2022-11-08T04:41:38.118Z,18.94
2022-11-08T04:44:05.331Z,18.96
2022-11-08T04:46:32.571Z,18.98
2022-11-08T04:49:00.885Z,18.97
2022-11-08T04:51:30.542Z,18.98
2022-11-08T04:54:00.110Z,19.00
2022-11-08T04:56:29.548Z,18.95
2022-11-08T04:58:58.745Z,18.89
2022-11-08T05:04:23.056Z,18.90
2022-11-08T05:06:59.066Z,18.85
2022-11-08T05:09:40.189Z,18.88
2022-11-08T05:12:10.749Z,18.89
2022-11-08T05:14:48.969Z,18.80
2022-11-08T05:17:19.314Z,18.83
2022-11-08T05:20:08.793Z,18.81
2022-11-08T05:23:00.659Z,18.82
2022-11-08T05:25:37.445Z,18.74
2022-11-08T05:28:18.021Z,18.78
2022-11-08T05:30:58.116Z,18.74
2022-11-08T05:33:32.918Z,18.73
2022-11-08T05:36:08.561Z,18.72
2022-11-08T05:38:41.343Z,18.74
2022-11-08T05:41:23.069Z,18.71
2022-11-08T05:44:00.015Z,18.77
2022-11-08T05:46:53.797Z,18.72
2022-11-08T05:49:24.017Z,18.75
2022-11-08T05:51:54.490Z,18.72
2022-11-08T05:54:24.565Z,18.71
2022-11-08T05:56:59.660Z,18.70
2022-11-08T05:59:31.867Z,18.77
2022-11-08T06:02:04.149Z,18.76
2022-11-08T06:04:42.790Z,18.74
2022-11-08T06:07:12.727Z,18.84
2022-11-08T06:09:48.382Z,18.86
2022-11-08T06:12:17.284Z,18.89
2022-11-08T06:14:47.015Z,18.87
2022-11-08T06:17:26.346Z,18.93
2022-11-08T06:19:59.397Z,18.90
2022-11-08T06:22:37.137Z,18.84
2022-11-08T06:25:14.118Z,18.83
2022-11-08T06:27:47.194Z,18.86
2022-11-08T06:30:23.943Z,18.86
2022-11-08T06:32:51.302Z,18.83
2022-11-08T06:35:19.643Z,18.82
2022-11-08T06:37:59.056Z,18.81
2022-11-08T06:40:35.391Z,18.90
2022-11-08T06:43:06.502Z,18.91
2022-11-08T06:45:43.028Z,18.86
2022-11-08T06:48:10.380Z,18.94
2022-11-08T06:50:37.476Z,18.90
2022-11-08T06:53:12.536Z,18.91
2022-11-08T06:55:39.840Z,18.93
2022-11-08T06:58:10.741Z,18.96
2022-11-08T07:00:38.531Z,18.97
2022-11-08T07:03:05.732Z,19.01
2022-11-08T07:05:37.232Z,19.04
2022-11-08T07:08:04.817Z,19.07
2022-11-08T07:10:36.589Z,19.08
2022-11-08T07:13:14.948Z,19.10
2022-11-08T07:15:43.367Z,19.14
2022-11-08T07:18:16.980Z,19.21
2022-11-08T07:20:44.512Z,19.29
2022-11-08T07:23:14.091Z,19.29
2022-11-08T07:25:45.287Z,19.31
2022-11-08T07:28:20.431Z,19.31
2022-11-08T07:30:49.287Z,19.35
2022-11-08T07:33:18.197Z,19.41
2022-11-08T07:35:48.701Z,19.41
2022-11-08T07:38:16.324Z,19.47
2022-11-08T07:40:47.029Z,19.53
2022-11-08T07:43:16.835Z,19.59
2022-11-08T07:45:47.324Z,19.66
2022-11-08T07:48:14.772Z,19.71
2022-11-08T07:50:43.009Z,19.75
2022-11-08T07:53:11.148Z,19.79
2022-11-08T07:55:40.822Z,19.87
2022-11-08T07:58:11.763Z,19.94
2022-11-08T08:00:40.766Z,20.00
2022-11-08T08:03:10.567Z,20.02
2022-11-08T08:05:43.204Z,20.07
2022-11-08T08:08:12.815Z,20.17
2022-11-08T08:10:41.204Z,20.15
2022-11-08T08:13:11.207Z,20.26
2022-11-08T08:15:41.364Z,20.34
2022-11-08T08:18:12.182Z,20.49
2022-11-08T08:20:42.419Z,20.68
2022-11-08T08:23:12.958Z,20.81
2022-11-08T08:25:41.042Z,20.99
2022-11-08T08:28:09.722Z,21.12
2022-11-08T08:30:37.396Z,21.31
2022-11-08T08:33:27.496Z,21.41
2022-11-08T08:35:55.617Z,21.59
2022-11-08T08:38:23.393Z,21.70
2022-11-08T08:40:51.496Z,21.90
2022-11-08T08:43:19.436Z,22.06
2022-11-08T08:45:47.025Z,22.27
2022-11-08T08:48:14.237Z,22.42
2022-11-08T08:50:44.396Z,22.46
2022-11-08T08:53:11.830Z,22.57
2022-11-08T08:55:43.586Z,22.60
2022-11-08T08:58:14.691Z,22.64
2022-11-08T09:03:34.343Z,22.52
2022-11-08T09:06:02.347Z,22.50
2022-11-08T09:08:30.615Z,22.61
2022-11-08T09:11:01.508Z,22.70
2022-11-08T09:13:35.422Z,22.82
2022-11-08T09:16:12.787Z,23.16
2022-11-08T09:18:54.355Z,23.36
2022-11-08T09:21:28.267Z,23.39
2022-11-08T09:24:05.137Z,23.54
2022-11-08T09:26:41.025Z,23.66
2022-11-08T09:29:12.712Z,23.73
2022-11-08T09:31:43.822Z,23.73
2022-11-08T09:34:17.733Z,23.75
2022-11-08T09:36:59.287Z,23.75
2022-11-08T09:39:43.651Z,23.75
2022-11-08T09:42:48.970Z,23.83
2022-11-08T09:45:49.166Z,23.91
2022-11-08T09:48:45.479Z,24.03
2022-11-08T09:51:26.599Z,24.06
2022-11-08T09:54:04.024Z,24.10
2022-11-08T09:56:41.630Z,24.11
2022-11-08T09:59:54.056Z,24.22
2022-11-08T10:02:28.166Z,24.28
2022-11-08T10:05:17.643Z,24.32
2022-11-08T10:08:01.060Z,24.41
2022-11-08T10:10:51.265Z,24.46
2022-11-08T10:13:49.065Z,24.43
2022-11-08T10:16:52.415Z,24.59
2022-11-08T10:19:38.235Z,24.99
2022-11-08T10:22:26.239Z,25.48
2022-11-08T10:25:32.478Z,25.82
2022-11-08T10:28:17.459Z,26.02
2022-11-08T10:31:05.692Z,26.12
2022-11-08T10:34:15.233Z,26.50
2022-11-08T10:36:50.362Z,26.87
2022-11-08T10:39:34.526Z,27.01
2022-11-08T10:42:16.737Z,27.42
2022-11-08T10:44:57.878Z,27.44
2022-11-08T10:47:33.147Z,27.22
2022-11-08T10:50:25.886Z,27.69
2022-11-08T10:53:03.283Z,27.71
2022-11-08T10:55:41.466Z,27.73
2022-11-08T10:58:40.784Z,27.56
2022-11-08T11:01:29.308Z,27.31
2022-11-08T11:04:28.965Z,26.48
2022-11-08T11:07:07.071Z,27.23
2022-11-08T11:09:43.302Z,27.52
2022-11-08T11:12:15.150Z,27.59
2022-11-08T11:14:59.266Z,27.72
2022-11-08T11:17:41.222Z,27.34
2022-11-08T11:20:29.476Z,28.02
2022-11-08T11:23:10.303Z,27.20
2022-11-08T11:25:37.508Z,28.43
2022-11-08T11:28:08.092Z,28.73
2022-11-08T11:30:38.895Z,28.64
2022-11-08T11:33:24.921Z,27.35
2022-11-08T11:36:19.410Z,26.76
2022-11-08T11:39:06.380Z,27.56
2022-11-08T11:42:17.762Z,28.29
2022-11-08T11:45:08.772Z,28.56
2022-11-08T11:47:44.724Z,28.75
2022-11-08T11:50:42.845Z,29.77
2022-11-08T11:53:39.152Z,30.05
2022-11-08T11:56:18.627Z,30.08
2022-11-08T11:58:50.455Z,29.93
2022-11-08T12:01:40.480Z,30.52
2022-11-08T12:04:40.093Z,31.19
2022-11-08T12:07:42.890Z,30.61
2022-11-08T12:10:56.365Z,30.63
2022-11-08T12:13:37.101Z,30.13
2022-11-08T12:16:15.690Z,30.91
2022-11-08T12:19:21.411Z,31.36
2022-11-08T12:21:57.671Z,31.05
2022-11-08T12:24:42.437Z,31.52
2022-11-08T12:27:43.317Z,31.25
2022-11-08T12:30:35.871Z,30.50
2022-11-08T12:33:22.306Z,29.14
2022-11-08T12:36:16.837Z,28.94
2022-11-08T12:38:44.628Z,29.89
2022-11-08T12:41:40.860Z,30.43
2022-11-08T12:44:40.678Z,30.26
2022-11-08T12:47:54.436Z,29.45
2022-11-08T12:50:46.658Z,29.32
2022-11-08T12:53:56.482Z,28.59
2022-11-08T12:56:49.028Z,30.16
2022-11-08T12:59:31.977Z,29.04
2022-11-08T13:02:12.152Z,29.37
2022-11-08T13:05:21.691Z,30.63
2022-11-08T13:08:05.609Z,29.96
2022-11-08T13:11:18.934Z,28.97
2022-11-08T13:14:09.465Z,29.14
2022-11-08T13:16:45.554Z,29.11
2022-11-08T13:19:30.400Z,28.82
2022-11-08T13:21:57.693Z,29.28
2022-11-08T13:24:50.079Z,29.35
2022-11-08T13:27:25.908Z,29.68
2022-11-08T13:30:03.985Z,30.90
2022-11-08T13:32:53.874Z,29.95
2022-11-08T13:35:44.240Z,29.52
2022-11-08T13:38:17.500Z,29.50
2022-11-08T13:41:03.357Z,29.55
2022-11-08T13:43:41.353Z,29.75
2022-11-08T13:46:23.122Z,29.33
2022-11-08T13:49:07.600Z,29.30
2022-11-08T13:51:38.062Z,29.54
2022-11-08T13:54:31.364Z,29.74
2022-11-08T13:57:02.947Z,29.66
2022-11-08T13:59:36.239Z,29.48
2022-11-08T14:02:05.785Z,29.23
2022-11-08T14:04:40.980Z,28.57
2022-11-08T14:07:27.689Z,28.88
2022-11-08T14:10:11.962Z,29.38
2022-11-08T14:12:57.218Z,28.76
2022-11-08T14:15:36.373Z,28.40
2022-11-08T14:18:27.137Z,29.10
2022-11-08T14:20:58.017Z,28.40
2022-11-08T14:23:33.102Z,28.25
2022-11-08T14:26:27.023Z,27.99
2022-11-08T14:28:54.510Z,27.91
2022-11-08T14:31:35.147Z,27.45
2022-11-08T14:34:02.806Z,28.25
2022-11-08T14:36:32.249Z,27.99
2022-11-08T14:39:20.932Z,27.06
2022-11-08T14:41:55.402Z,27.03
2022-11-08T14:44:24.070Z,28.02
2022-11-08T14:46:54.780Z,27.94
2022-11-08T14:49:30.907Z,28.08
2022-11-08T14:52:19.351Z,27.48
2022-11-08T14:55:10.475Z,27.11
2022-11-08T14:57:47.172Z,26.33
2022-11-08T15:00:21.795Z,25.92
2022-11-08T15:02:55.311Z,26.28
2022-11-08T15:05:27.386Z,25.98
2022-11-08T15:07:54.953Z,26.03
2022-11-08T15:10:22.372Z,25.59
2022-11-08T15:12:50.114Z,25.61
2022-11-08T15:15:25.569Z,25.42
2022-11-08T15:18:18.092Z,25.25
2022-11-08T15:21:06.399Z,25.29
2022-11-08T15:23:47.775Z,25.43
2022-11-08T15:26:38.074Z,25.60
2022-11-08T15:29:22.895Z,25.40
2022-11-08T15:32:01.166Z,25.20
2022-11-08T15:34:41.165Z,25.31
2022-11-08T15:37:32.753Z,25.41
2022-11-08T15:40:07.800Z,24.94
2022-11-08T15:42:38.442Z,25.45
2022-11-08T15:45:32.408Z,25.64
2022-11-08T15:48:27.904Z,25.78
2022-11-08T15:51:04.996Z,25.66
2022-11-08T15:53:34.876Z,25.60
2022-11-08T15:56:04.968Z,25.54
2022-11-08T15:58:42.667Z,25.20
2022-11-08T16:01:23.215Z,25.04
2022-11-08T16:04:02.456Z,25.16
2022-11-08T16:06:37.212Z,25.13
2022-11-08T16:09:09.813Z,24.82
2022-11-08T16:11:43.608Z,24.36
2022-11-08T16:14:27.219Z,24.51
2022-11-08T16:16:55.963Z,24.36
2022-11-08T16:19:29.026Z,24.33
2022-11-08T16:21:59.525Z,24.19
2022-11-08T16:24:34.495Z,24.46
2022-11-08T16:27:12.843Z,24.23
2022-11-08T16:29:40.343Z,24.37
2022-11-08T16:32:12.988Z,24.41
2022-11-08T16:34:48.568Z,24.19
2022-11-08T16:37:16.349Z,23.94
2022-11-08T16:39:52.050Z,23.95
2022-11-08T16:42:21.544Z,23.54
2022-11-08T16:44:56.890Z,23.88
2022-11-08T16:47:29.185Z,23.67
2022-11-08T16:50:07.910Z,23.24
2022-11-08T16:52:36.386Z,23.03
2022-11-08T16:55:11.692Z,22.72
2022-11-08T16:57:41.319Z,22.88
2022-11-08T17:00:19.881Z,22.66
2022-11-08T17:02:53.133Z,22.73
2022-11-08T17:05:23.924Z,22.83
2022-11-08T17:07:54.680Z,23.06
2022-11-08T17:10:30.286Z,22.46
2022-11-08T17:12:58.038Z,22.64
2022-11-08T17:15:27.738Z,22.80
2022-11-08T17:17:56.272Z,22.96
2022-11-08T17:20:26.944Z,22.87
2022-11-08T17:22:54.594Z,22.74
2022-11-08T17:25:26.308Z,22.71
2022-11-08T17:27:53.791Z,22.98
2022-11-08T17:30:26.650Z,23.27
2022-11-08T17:32:55.091Z,22.73
2022-11-08T17:35:28.813Z,23.08
2022-11-08T17:37:56.402Z,23.24
2022-11-08T17:40:26.911Z,22.95
2022-11-08T17:45:23.679Z,22.91
2022-11-08T17:47:56.423Z,22.32
2022-11-08T17:50:23.860Z,22.93
2022-11-08T17:52:57.017Z,22.88
2022-11-08T17:55:30.435Z,22.73
2022-11-08T17:57:57.582Z,22.94
2022-11-08T18:00:25.024Z,22.95
2022-11-08T18:02:54.707Z,22.85
2022-11-08T18:05:23.692Z,22.97
2022-11-08T18:07:51.020Z,22.99
2022-11-08T18:10:21.271Z,22.71
2022-11-08T18:12:48.413Z,22.86
2022-11-08T18:15:18.670Z,22.37
2022-11-08T18:17:45.744Z,22.68
2022-11-08T18:20:15.515Z,22.14
2022-11-08T18:22:43.766Z,22.37
2022-11-08T18:25:11.056Z,22.25
2022-11-08T18:27:40.792Z,22.36
2022-11-08T18:30:08.351Z,22.52
2022-11-08T18:32:37.013Z,22.55
2022-11-08T18:35:06.798Z,22.77
2022-11-08T18:37:48.974Z,22.67
2022-11-08T18:40:31.155Z,22.52
2022-11-08T18:42:58.314Z,22.80
2022-11-08T18:45:28.658Z,22.36
2022-11-08T18:48:03.430Z,22.09
2022-11-08T18:50:33.987Z,22.44
2022-11-08T18:53:03.963Z,22.27
2022-11-08T18:55:33.807Z,21.97
2022-11-08T18:58:02.243Z,22.18
2022-11-08T19:00:35.201Z,22.25
2022-11-08T19:03:02.706Z,22.34
2022-11-08T19:05:35.081Z,22.30
2022-11-08T19:08:02.624Z,22.43
2022-11-08T19:10:33.161Z,22.37
2022-11-08T19:13:01.115Z,22.14
2022-11-08T19:15:28.521Z,21.97
2022-11-08T19:17:56.164Z,22.36
2022-11-08T19:20:24.203Z,22.14
2022-11-08T19:22:56.858Z,22.29
2022-11-08T19:25:26.708Z,22.21
2022-11-08T19:28:04.407Z,22.45
2022-11-08T19:30:37.403Z,22.42
2022-11-08T19:33:09.498Z,22.44
2022-11-08T19:35:40.085Z,22.53
2022-11-08T19:38:19.559Z,22.56
2022-11-08T19:40:51.951Z,22.72
2022-11-08T19:43:19.541Z,22.80
2022-11-08T19:45:57.183Z,22.79
2022-11-08T19:48:30.987Z,22.95
2022-11-08T19:51:02.143Z,23.00
2022-11-08T19:53:33.154Z,23.04
2022-11-08T19:56:02.202Z,23.07
2022-11-08T19:58:31.436Z,23.11
2022-11-08T20:01:06.753Z,23.09
2022-11-08T20:03:38.250Z,23.08
2022-11-08T20:06:09.897Z,23.07
2022-11-08T20:08:41.437Z,23.11
2022-11-08T20:11:23.484Z,23.13
2022-11-08T20:13:51.337Z,23.14
2022-11-08T20:16:25.684Z,23.15
2022-11-08T20:19:05.618Z,23.16
2022-11-08T20:21:42.893Z,23.17
2022-11-08T20:24:20.281Z,23.16
2022-11-08T20:26:53.059Z,23.12
2022-11-08T20:29:25.826Z,23.13
2022-11-08T20:32:03.777Z,23.14
2022-11-08T20:34:41.210Z,23.13
2022-11-08T20:37:17.478Z,23.12
2022-11-08T20:39:54.740Z,23.08
2022-11-08T20:42:24.992Z,23.08
2022-11-08T20:44:55.417Z,23.03
2022-11-08T20:47:22.986Z,23.00
2022-11-08T20:49:50.588Z,23.02
2022-11-08T20:52:23.881Z,23.03
2022-11-08T20:54:51.439Z,23.03
2022-11-08T20:57:19.184Z,22.96
2022-11-08T20:59:54.991Z,22.89
2022-11-08T21:02:22.989Z,22.86
2022-11-08T21:04:50.666Z,22.85
2022-11-08T21:08:01.215Z,22.85
2022-11-08T21:10:35.664Z,22.81
2022-11-08T21:13:04.892Z,22.77
2022-11-08T21:15:38.350Z,22.75
2022-11-08T21:18:05.917Z,22.73
2022-11-08T21:20:35.453Z,22.73
2022-11-08T21:23:03.824Z,22.73
2022-11-08T21:25:35.362Z,22.72
2022-11-08T21:28:17.011Z,22.70
2022-11-08T21:30:52.701Z,22.66
2022-11-08T21:33:26.293Z,22.63
2022-11-08T21:35:59.596Z,22.60
2022-11-08T21:38:33.318Z,22.57
2022-11-08T21:41:11.306Z,22.57
2022-11-08T21:43:43.930Z,22.59
2022-11-08T21:46:30.798Z,22.55
2022-11-08T21:49:08.171Z,22.54
2022-11-08T21:54:09.557Z,22.50
2022-11-08T21:59:13.776Z,22.49
2022-11-08T22:01:47.602Z,22.49
2022-11-08T22:04:17.989Z,22.48
2022-11-08T22:06:47.951Z,22.45
2022-11-08T22:09:15.946Z,22.42
2022-11-08T22:11:43.227Z,22.43
2022-11-08T22:14:13.536Z,22.38
2022-11-08T22:16:42.774Z,22.37
2022-11-08T22:19:11.847Z,22.35
2022-11-08T22:21:41.032Z,22.30
2022-11-08T22:24:22.248Z,22.28
2022-11-08T22:26:51.787Z,22.30
2022-11-08T22:29:19.949Z,22.26
2022-11-08T22:31:48.258Z,22.24
2022-11-08T22:34:16.307Z,22.19
2022-11-08T22:36:45.630Z,22.19
2022-11-08T22:39:21.659Z,22.16
2022-11-08T22:41:52.156Z,22.15
2022-11-08T22:44:20.362Z,22.18
2022-11-08T22:46:48.303Z,22.13
2022-11-08T22:49:19.009Z,22.13
2022-11-08T22:51:46.450Z,22.12
2022-11-08T22:54:16.350Z,22.12
2022-11-08T22:56:44.491Z,22.14
2022-11-08T22:59:15.153Z,22.13
2022-11-08T23:01:42.533Z,22.11
2022-11-08T23:04:11.522Z,22.10
2022-11-08T23:06:39.606Z,22.08
2022-11-08T23:09:08.452Z,22.03
2022-11-08T23:11:54.293Z,22.02
2022-11-08T23:14:40.399Z,21.96
2022-11-08T23:17:08.472Z,21.93
2022-11-08T23:19:54.302Z,21.88
2022-11-08T23:22:42.884Z,21.88
2022-11-08T23:25:11.532Z,21.86
2022-11-08T23:27:57.023Z,21.84
2022-11-08T23:30:42.751Z,21.81
2022-11-08T23:33:10.243Z,21.80
2022-11-08T23:35:37.765Z,21.74
2022-11-08T23:38:06.201Z,21.75
2022-11-08T23:40:51.589Z,21.68
2022-11-08T23:43:39.904Z,21.69
2022-11-08T23:46:12.676Z,21.68
2022-11-08T23:48:41.127Z,21.66
2022-11-08T23:51:10.227Z,21.63
2022-11-08T23:53:37.697Z,21.66
2022-11-08T23:56:07.851Z,21.69
2022-11-08T23:58:35.045Z,21.67
